Time;durP1;ratioP1;P1;durP2;ratioP2;P2;SDS_P1;SDS_P2;PMS_P1;PMS_P2;Temp;Humidity;BMP_temperature;BMP_pressure;BME280_temperature;BME280_humidity;BME280_pressure;Samples;Min_cycle;Max_cycle;Signal;HPM_P1;HPM_P2
2021/12/19 00:08:56;;;;;;;15.20;9.85;;;22.80;41.30;;;;;;6175012;28;80722;-67
2021/12/19 00:11:56;;;;;;;20.35;11.00;;;22.80;41.00;;;;;;6167811;28;80903;-66
2021/12/19 00:14:57;;;;;;;16.40;9.63;;;22.70;40.90;;;;;;6145307;28;83474;-67
2021/12/19 00:17:57;;;;;;;12.63;8.60;;;22.70;40.90;;;;;;6155927;28;82919;-67
2021/12/19 00:20:58;;;;;;;14.13;9.30;;;22.70;41.90;;;;;;6160634;28;80334;-68
2021/12/19 00:23:59;;;;;;;15.82;10.02;;;22.70;41.00;;;;;;6157133;28;80314;-68
2021/12/19 00:26:59;;;;;;;16.45;9.30;;;22.70;41.00;;;;;;6158619;28;84063;-65
2021/12/19 00:30:00;;;;;;;17.05;9.60;;;22.70;41.20;;;;;;6167884;28;83421;-65
2021/12/19 00:33:00;;;;;;;15.73;9.95;;;22.70;41.10;;;;;;6164473;28;82108;-64
2021/12/19 00:36:01;;;;;;;18.70;8.63;;;22.70;41.40;;;;;;6175913;28;80860;-64
2021/12/19 00:39:02;;;;;;;14.43;9.27;;;22.70;41.20;;;;;;6150219;28;81333;-65
2021/12/19 00:42:07;;;;;;;16.45;9.57;;;22.70;41.20;;;;;;6175062;28;80624;-65
2021/12/19 00:45:26;;;;;;;14.57;9.10;;;22.70;41.20;;;;;;6160736;27;85386;-65
2021/12/19 00:48:27;;;;;;;12.88;8.25;;;22.70;41.40;;;;;;6177831;28;80394;-65
2021/12/19 00:51:27;;;;;;;15.90;8.80;;;22.70;41.30;;;;;;6166731;27;83095;-65
2021/12/19 00:54:28;;;;;;;15.05;9.02;;;22.70;41.30;;;;;;6171758;28;80591;-66
2021/12/19 00:57:28;;;;;;;13.95;8.82;;;22.70;41.40;;;;;;6169743;27;83183;-65
2021/12/19 01:00:29;;;;;;;20.80;8.65;;;22.70;41.60;;;;;;6164059;28;81155;-65
2021/12/19 01:03:29;;;;;;;19.42;9.55;;;22.70;41.60;;;;;;6162316;28;82491;-65
2021/12/19 01:06:30;;;;;;;15.02;8.43;;;22.70;41.40;;;;;;6161995;28;80470;-65
2021/12/19 01:09:31;;;;;;;13.35;8.57;;;22.70;41.40;;;;;;6169067;27;80315;-65
2021/12/19 01:12:32;;;;;;;13.95;8.13;;;22.70;41.50;;;;;;6179282;27;81221;-65
2021/12/19 01:15:32;;;;;;;16.08;8.90;;;22.70;41.50;;;;;;6166767;28;80784;-66
2021/12/19 01:18:33;;;;;;;12.30;7.65;;;22.70;41.90;;;;;;6161453;28;80800;-65
2021/12/19 01:21:33;;;;;;;14.60;7.70;;;22.70;41.70;;;;;;6162143;28;80521;-64
2021/12/19 01:24:34;;;;;;;12.93;8.02;;;22.70;41.70;;;;;;6172754;27;81618;-64
2021/12/19 01:27:34;;;;;;;13.98;7.82;;;22.70;41.50;;;;;;6169600;28;80413;-64
2021/12/19 01:30:35;;;;;;;11.73;7.35;;;22.70;41.50;;;;;;6166765;27;80375;-65
2021/12/19 01:33:35;;;;;;;12.38;6.80;;;22.70;41.40;;;;;;6164535;28;81092;-64
2021/12/19 01:36:36;;;;;;;13.63;7.68;;;22.70;41.70;;;;;;6173985;27;80432;-65
2021/12/19 01:39:36;;;;;;;15.32;7.90;;;22.70;41.60;;;;;;6169960;28;80513;-65
2021/12/19 01:42:37;;;;;;;11.65;7.22;;;22.70;41.40;;;;;;6173562;27;80825;-66
2021/12/19 01:45:37;;;;;;;11.45;7.35;;;22.70;41.60;;;;;;6179294;27;80394;-67
2021/12/19 01:48:38;;;;;;;11.40;6.47;;;22.70;41.70;;;;;;6167035;28;80992;-65
2021/12/19 01:51:38;;;;;;;10.38;6.30;;;22.70;41.70;;;;;;6161832;28;83035;-65
2021/12/19 01:54:39;;;;;;;8.68;6.28;;;22.70;41.70;;;;;;6161847;28;80055;-65
2021/12/19 01:57:40;;;;;;;11.95;6.50;;;22.60;41.90;;;;;;6174281;27;80891;-64
2021/12/19 02:00:40;;;;;;;10.75;6.38;;;22.60;42.10;;;;;;6210110;27;83281;-65
2021/12/19 02:03:41;;;;;;;10.05;6.60;;;22.60;41.80;;;;;;6162690;28;82304;-65
2021/12/19 02:06:41;;;;;;;9.55;5.55;;;22.60;41.90;;;;;;6161698;28;80364;-64
2021/12/19 02:09:42;;;;;;;8.80;5.80;;;22.60;41.80;;;;;;6166822;27;81315;-64
2021/12/19 02:12:42;;;;;;;8.35;5.43;;;22.60;42.00;;;;;;6164939;28;81411;-64
2021/12/19 02:15:43;;;;;;;9.93;5.88;;;22.60;42.20;;;;;;6172990;27;80970;-65
2021/12/19 02:18:44;;;;;;;10.48;6.03;;;22.60;42.00;;;;;;6178181;27;80538;-64
2021/12/19 02:21:44;;;;;;;8.23;5.78;;;22.60;41.80;;;;;;6173470;27;82003;-65
2021/12/19 02:24:45;;;;;;;8.82;5.43;;;22.60;42.20;;;;;;6173835;27;80109;-65
2021/12/19 02:27:45;;;;;;;8.75;5.60;;;22.60;42.10;;;;;;6173265;27;80442;-66
2021/12/19 02:30:46;;;;;;;6.97;4.97;;;22.60;42.10;;;;;;6172263;27;80413;-65
2021/12/19 02:33:59;;;;;;;7.80;5.15;;;22.60;42.00;;;;;;6159987;28;81769;-65
2021/12/19 02:37:11;;;;;;;9.60;5.53;;;22.60;41.90;;;;;;6177135;27;81029;-65
2021/12/19 02:50:03;;;;;;;8.07;5.05;;;22.60;42.00;;;;;;6166258;28;80730;-64
2021/12/19 02:53:03;;;;;;;9.18;5.20;;;22.60;42.00;;;;;;6161817;28;80550;-64
2021/12/19 02:56:04;;;;;;;7.80;4.60;;;22.60;42.10;;;;;;6177874;27;81484;-64
2021/12/19 02:59:04;;;;;;;7.75;4.65;;;22.60;42.20;;;;;;6176936;27;81186;-64
2021/12/19 03:02:05;;;;;;;7.28;4.82;;;22.60;42.10;;;;;;6177290;27;82087;-64
2021/12/19 03:05:05;;;;;;;6.88;4.63;;;22.60;42.50;;;;;;6170315;28;81062;-64
2021/12/19 03:08:08;;;;;;;7.65;4.50;;;22.60;41.90;;;;;;6177213;27;81344;-65
2021/12/19 03:18:00;;;;;;;7.40;4.40;;;22.60;41.80;;;;;;6171768;27;80646;-65
2021/12/19 03:21:01;;;;;;;6.43;3.85;;;22.50;41.40;;;;;;6158830;28;80325;-64
2021/12/19 03:24:01;;;;;;;4.97;3.67;;;22.60;41.10;;;;;;6161463;28;80789;-64
2021/12/19 03:27:02;;;;;;;6.68;4.28;;;22.60;40.70;;;;;;6170475;28;80998;-65
2021/12/19 03:30:02;;;;;;;6.18;4.20;;;22.70;40.60;;;;;;6167488;27;80447;-64
2021/12/19 03:33:03;;;;;;;4.55;3.38;;;22.70;40.40;;;;;;6163141;28;81935;-64
2021/12/19 03:36:03;;;;;;;4.97;3.67;;;22.70;40.50;;;;;;6170649;27;88683;-67
2021/12/19 03:39:13;;;;;;;6.07;3.85;;;22.80;40.50;;;;;;6164052;28;81770;-66
2021/12/19 03:42:14;;;;;;;5.97;3.88;;;22.80;40.40;;;;;;6171162;27;81310;-65
2021/12/19 03:45:14;;;;;;;7.00;3.72;;;22.80;40.40;;;;;;6168172;28;80338;-65
2021/12/19 03:48:16;;;;;;;6.00;3.45;;;22.90;40.40;;;;;;6170825;27;81895;-65
2021/12/19 03:51:16;;;;;;;4.90;3.75;;;22.90;40.40;;;;;;6162499;28;81769;-64
2021/12/19 03:54:17;;;;;;;5.28;3.78;;;22.90;40.40;;;;;;6189269;28;81794;-64
2021/12/19 03:57:17;;;;;;;5.95;3.60;;;22.90;40.30;;;;;;6158581;28;81417;-65
2021/12/19 04:00:22;;;;;;;4.85;3.72;;;22.90;40.30;;;;;;6159172;28;81282;-65
2021/12/19 04:03:23;;;;;;;5.60;3.40;;;22.90;40.30;;;;;;6159943;28;81266;-64
2021/12/19 04:06:25;;;;;;;4.97;3.60;;;23.00;40.40;;;;;;6160926;28;81936;-64
2021/12/19 04:09:26;;;;;;;6.45;3.50;;;22.90;40.40;;;;;;6157425;28;81401;-64
2021/12/19 04:12:29;;;;;;;5.47;3.78;;;23.00;40.40;;;;;;6189852;28;83087;-65
2021/12/19 04:15:29;;;;;;;5.80;3.80;;;23.00;40.40;;;;;;6174980;27;80575;-65
2021/12/19 04:18:30;;;;;;;5.72;3.58;;;23.00;40.40;;;;;;6158009;28;80502;-64
2021/12/19 04:21:30;;;;;;;6.15;3.00;;;23.10;40.60;;;;;;6178375;28;80561;-64
2021/12/19 04:24:31;;;;;;;4.30;3.30;;;23.10;40.50;;;;;;6162298;28;81813;-64
2021/12/19 04:27:33;;;;;;;4.40;3.20;;;23.10;40.50;;;;;;6168736;28;81448;-65
2021/12/19 04:30:34;;;;;;;6.65;3.60;;;23.00;40.50;;;;;;6181023;27;81654;-64
2021/12/19 04:33:37;;;;;;;4.10;2.75;;;23.10;40.50;;;;;;6162460;28;80730;-66
2021/12/19 04:36:41;;;;;;;4.60;3.05;;;23.10;40.40;;;;;;6163633;28;81579;-66
2021/12/19 04:39:57;;;;;;;5.75;3.50;;;23.10;40.30;;;;;;6178223;28;80828;-66
2021/12/19 04:53:08;;;;;;;5.03;3.05;;;23.10;40.10;;;;;;6167110;28;80383;-66
2021/12/19 04:56:27;;;;;;;3.90;2.65;;;23.10;40.10;;;;;;6179308;28;81046;-66
2021/12/19 05:15:17;;;;;;;4.68;2.90;;;23.10;39.90;;;;;;6164309;28;84793;-65
2021/12/19 05:18:19;;;;;;;3.03;2.58;;;23.20;40.00;;;;;;6159623;28;81048;-66
2021/12/19 05:21:24;;;;;;;3.38;2.53;;;23.20;40.00;;;;;;6161583;28;83217;-64
2021/12/19 05:27:38;;;;;;;3.70;2.53;;;23.20;39.90;;;;;;6160124;27;80633;-68
2021/12/19 05:30:38;;;;;;;4.30;2.88;;;23.20;40.10;;;;;;6157817;28;83030;-66
2021/12/19 05:33:39;;;;;;;4.72;2.30;;;23.20;40.60;;;;;;6141648;28;81009;-69
2021/12/19 05:46:38;;;;;;;3.47;2.03;;;23.30;42.80;;;;;;6163791;28;82058;-69
2021/12/19 05:49:39;;;;;;;4.90;1.95;;;23.20;44.10;;;;;;6160926;28;81031;-71
2021/12/19 05:52:39;;;;;;;2.75;1.70;;;23.10;45.70;;;;;;6160862;28;82939;-66
2021/12/19 05:55:40;;;;;;;4.80;1.65;;;23.10;46.60;;;;;;6161903;28;80591;-67
2021/12/19 05:58:40;;;;;;;5.22;1.75;;;23.10;47.20;;;;;;6163121;28;82552;-67
2021/12/19 06:01:42;;;;;;;2.20;1.45;;;23.10;47.80;;;;;;6160727;28;80601;-67
2021/12/19 06:04:43;;;;;;;1.40;1.30;;;23.10;48.20;;;;;;6159552;28;80514;-68
2021/12/19 06:07:44;;;;;;;5.20;1.40;;;23.10;48.70;;;;;;6160893;28;80643;-65
2021/12/19 06:10:44;;;;;;;1.75;1.42;;;23.10;49.00;;;;;;6160963;28;80767;-69
2021/12/19 06:13:45;;;;;;;1.38;1.27;;;23.10;49.20;;;;;;6160453;28;80601;-68
2021/12/19 06:16:45;;;;;;;1.50;1.40;;;23.10;50.20;;;;;;6160445;28;80241;-67
2021/12/19 06:19:46;;;;;;;111.78;52.65;;;23.00;50.70;;;;;;6160291;28;81969;-68
2021/12/19 06:22:46;;;;;;;186.75;92.32;;;23.00;51.50;;;;;;6156799;28;82791;-68
2021/12/19 06:25:47;;;;;;;204.43;100.68;;;23.00;52.10;;;;;;6156617;28;82981;-68
2021/12/19 06:28:47;;;;;;;151.15;75.82;;;23.00;52.30;;;;;;6152825;28;85280;-66
2021/12/19 06:31:48;;;;;;;218.68;112.07;;;23.00;52.40;;;;;;6146484;28;87100;-68
2021/12/19 06:34:48;;;;;;;283.05;137.13;;;22.90;52.40;;;;;;6149558;28;85732;-67
2021/12/19 06:37:49;;;;;;;313.40;153.45;;;22.80;52.80;;;;;;6153665;28;86799;-67
2021/12/19 06:40:49;;;;;;;320.98;155.73;;;22.80;53.20;;;;;;6150510;28;85678;-67
2021/12/19 06:43:50;;;;;;;269.70;128.20;;;22.80;53.20;;;;;;6152107;28;85728;-67
2021/12/19 06:46:50;;;;;;;219.10;102.82;;;22.90;52.90;;;;;;6153974;28;85319;-66
2021/12/19 06:49:51;;;;;;;180.93;86.25;;;23.00;53.10;;;;;;6153364;28;85782;-68
2021/12/19 06:52:51;;;;;;;148.82;72.90;;;23.10;52.30;;;;;;6156196;28;85560;-67
2021/12/19 06:55:52;;;;;;;117.38;56.55;;;23.00;52.00;;;;;;6150204;28;83235;-68
2021/12/19 06:58:52;;;;;;;99.80;48.28;;;23.00;51.90;;;;;;6154724;28;85564;-68
2021/12/19 07:01:53;;;;;;;97.43;44.13;;;23.10;52.00;;;;;;6152183;28;83469;-67
2021/12/19 07:04:54;;;;;;;85.72;38.97;;;23.00;52.10;;;;;;6152226;28;83692;-67
2021/12/19 07:07:54;;;;;;;71.75;32.45;;;23.00;52.40;;;;;;6166829;28;83814;-67
2021/12/19 07:10:55;;;;;;;75.07;33.03;;;23.00;52.30;;;;;;6154120;28;83285;-67
2021/12/19 07:13:55;;;;;;;63.60;29.73;;;23.00;52.40;;;;;;6152203;28;84362;-68
2021/12/19 07:16:56;;;;;;;54.58;26.17;;;23.00;52.50;;;;;;6154905;28;83430;-66
2021/12/19 07:19:56;;;;;;;45.90;23.98;;;23.00;52.70;;;;;;6152830;28;83911;-68
2021/12/19 07:22:57;;;;;;;44.10;21.13;;;23.00;52.20;;;;;;6153119;28;84300;-66
2021/12/19 07:25:57;;;;;;;40.05;19.20;;;23.00;52.40;;;;;;6151996;28;84489;-66
2021/12/19 07:28:58;;;;;;;32.08;18.38;;;23.00;52.80;;;;;;6151215;28;83326;-66
2021/12/19 07:31:58;;;;;;;34.42;16.35;;;23.00;52.80;;;;;;6149343;28;83749;-66
2021/12/19 07:34:59;;;;;;;30.75;15.70;;;22.90;52.90;;;;;;6156044;28;83162;-68
2021/12/19 07:38:00;;;;;;;33.72;16.15;;;23.00;52.90;;;;;;6152729;28;82980;-65
2021/12/19 07:41:02;;;;;;;26.25;13.32;;;23.00;52.10;;;;;;6153510;28;82903;-66
2021/12/19 07:44:03;;;;;;;25.10;13.10;;;23.00;52.30;;;;;;6153665;28;84209;-65
2021/12/19 07:47:03;;;;;;;26.15;12.50;;;23.00;52.20;;;;;;6155668;28;82935;-67
2021/12/19 07:50:04;;;;;;;29.67;13.65;;;23.00;51.90;;;;;;6156588;28;83044;-66
2021/12/19 07:53:04;;;;;;;22.05;11.45;;;23.00;52.10;;;;;;6156611;28;82906;-65
2021/12/19 07:56:05;;;;;;;22.13;11.60;;;23.00;51.90;;;;;;6155083;28;84258;-66
2021/12/19 07:59:05;;;;;;;25.15;11.13;;;23.00;52.00;;;;;;6156110;28;85968;-67
2021/12/19 08:02:06;;;;;;;19.55;11.15;;;23.00;51.80;;;;;;6156844;28;83425;-67
2021/12/19 08:05:06;;;;;;;24.73;10.88;;;23.00;51.80;;;;;;6156030;28;82950;-66
2021/12/19 08:08:10;;;;;;;21.90;10.75;;;23.00;51.60;;;;;;6155551;28;83294;-65
2021/12/19 08:14:30;;;;;;;16.73;9.50;;;23.00;51.70;;;;;;6153056;28;83922;-66
2021/12/19 08:17:31;;;;;;;17.80;9.43;;;23.00;51.50;;;;;;6157904;28;84498;-66
2021/12/19 08:20:32;;;;;;;21.52;9.20;;;23.00;51.70;;;;;;6156821;28;81192;-66
2021/12/19 08:23:34;;;;;;;18.27;9.18;;;23.00;51.40;;;;;;6158011;28;80418;-66
2021/12/19 08:26:35;;;;;;;18.38;8.45;;;23.00;51.40;;;;;;6163597;28;81088;-66
2021/12/19 08:29:35;;;;;;;15.02;8.00;;;23.00;51.40;;;;;;6158227;28;80186;-68
2021/12/19 08:32:36;;;;;;;17.58;8.27;;;23.00;51.00;;;;;;6149187;28;80593;-67
2021/12/19 08:35:36;;;;;;;16.20;8.25;;;23.00;50.90;;;;;;6156521;28;80460;-67
2021/12/19 08:38:37;;;;;;;11.63;6.60;;;23.00;51.00;;;;;;6157556;28;80157;-67
2021/12/19 08:41:38;;;;;;;15.48;7.43;;;23.00;51.20;;;;;;6153573;28;82042;-67
2021/12/19 08:44:39;;;;;;;15.77;7.90;;;22.90;51.00;;;;;;6152236;28;80727;-67
2021/12/19 08:47:40;;;;;;;11.27;6.47;;;23.00;50.80;;;;;;6165135;28;80595;-66
2021/12/19 08:50:40;;;;;;;11.43;6.68;;;23.00;50.70;;;;;;6160972;28;80471;-67
2021/12/19 08:53:41;;;;;;;13.00;5.70;;;23.00;50.90;;;;;;6158014;28;80631;-66
2021/12/19 08:56:41;;;;;;;9.45;5.45;;;23.00;50.30;;;;;;6163251;28;80861;-65
2021/12/19 08:59:43;;;;;;;11.32;5.18;;;22.90;50.30;;;;;;6156933;28;80574;-68
2021/12/19 09:02:45;;;;;;;8.43;5.30;;;23.00;50.10;;;;;;6148249;28;81794;-70
2021/12/19 09:05:46;;;;;;;9.75;5.13;;;23.00;49.80;;;;;;6158813;28;81228;-68
2021/12/19 09:08:46;;;;;;;11.60;5.03;;;22.90;49.40;;;;;;6159298;28;80808;-65
2021/12/19 09:11:47;;;;;;;8.80;5.13;;;23.00;50.10;;;;;;6162055;28;81405;-64
2021/12/19 09:14:47;;;;;;;11.90;4.65;;;23.00;49.60;;;;;;6166299;28;80557;-64
2021/12/19 09:17:48;;;;;;;11.85;5.00;;;23.00;49.60;;;;;;6166932;28;81656;-65
2021/12/19 09:20:48;;;;;;;7.43;4.47;;;23.00;49.70;;;;;;6158793;28;80908;-70
2021/12/19 09:23:49;;;;;;;7.68;3.72;;;23.00;49.80;;;;;;6156807;28;80627;-66
2021/12/19 09:26:49;;;;;;;6.28;4.00;;;23.00;49.80;;;;;;6161888;28;80557;-66
2021/12/19 09:29:50;;;;;;;8.10;3.92;;;23.00;50.30;;;;;;6163255;28;80551;-63
2021/12/19 09:32:51;;;;;;;14.77;4.47;;;23.00;49.70;;;;;;6159842;28;80145;-64
2021/12/19 09:35:51;;;;;;;7.43;3.75;;;23.00;50.00;;;;;;6158911;28;80430;-67
2021/12/19 09:38:52;;;;;;;10.50;4.38;;;23.00;49.90;;;;;;6151791;28;81373;-65
2021/12/19 09:41:52;;;;;;;8.02;4.43;;;23.00;49.70;;;;;;6157465;28;81573;-65
2021/12/19 09:44:53;;;;;;;5.20;3.17;;;23.00;49.50;;;;;;6157802;28;80558;-66
2021/12/19 09:47:53;;;;;;;7.53;4.15;;;23.00;49.70;;;;;;6158010;28;80868;-64
2021/12/19 09:50:54;;;;;;;4.93;3.10;;;23.10;49.50;;;;;;6157281;28;80359;-64
2021/12/19 09:53:54;;;;;;;4.85;3.60;;;23.10;49.40;;;;;;6159753;28;81364;-66
2021/12/19 09:56:55;;;;;;;7.88;3.88;;;23.10;49.20;;;;;;6155124;28;80769;-64
2021/12/19 09:59:55;;;;;;;4.68;3.35;;;23.10;48.90;;;;;;6157972;28;80406;-64
2021/12/19 10:02:56;;;;;;;7.43;3.25;;;23.10;49.00;;;;;;6157100;28;80716;-64
2021/12/19 10:05:56;;;;;;;5.60;2.75;;;23.10;48.90;;;;;;6157927;28;81692;-64
2021/12/19 10:08:58;;;;;;;5.32;3.13;;;23.10;48.50;;;;;;6157236;28;82146;-63
2021/12/19 10:12:10;;;;;;;5.20;3.05;;;23.10;48.50;;;;;;6157986;28;80504;-63
2021/12/19 10:15:11;;;;;;;7.47;3.42;;;23.10;48.40;;;;;;6159257;28;84913;-65
2021/12/19 10:18:12;;;;;;;3.85;3.15;;;23.10;48.80;;;;;;6155875;28;80705;-65
2021/12/19 10:21:12;;;;;;;5.63;3.38;;;23.10;48.80;;;;;;6158856;28;80364;-64
2021/12/19 10:24:13;;;;;;;7.20;3.40;;;23.10;49.20;;;;;;6158227;28;80840;-65
2021/12/19 10:27:13;;;;;;;8.10;3.45;;;23.10;49.80;;;;;;6159834;28;80653;-65
2021/12/19 10:30:14;;;;;;;11.65;5.30;;;23.10;50.10;;;;;;6160711;28;81773;-66
2021/12/19 10:33:16;;;;;;;21.00;7.55;;;23.00;50.70;;;;;;6159627;28;83060;-66
2021/12/19 10:36:16;;;;;;;28.55;10.20;;;23.10;52.20;;;;;;6160005;28;81283;-64
2021/12/19 10:39:19;;;;;;;51.35;14.95;;;23.00;51.80;;;;;;6156518;28;83027;-65
2021/12/19 10:42:21;;;;;;;52.17;16.95;;;23.00;52.10;;;;;;6156898;28;83196;-64
2021/12/19 10:45:31;;;;;;;70.22;21.58;;;23.10;52.70;;;;;;6154807;28;82890;-66
2021/12/19 10:48:32;;;;;;;79.20;23.10;;;23.10;53.50;;;;;;6154978;28;83570;-64
2021/12/19 10:51:33;;;;;;;71.22;21.45;;;23.10;53.30;;;;;;6152320;28;83631;-69
2021/12/19 10:54:35;;;;;;;67.60;21.48;;;23.20;53.60;;;;;;6156443;28;83256;-68
2021/12/19 10:57:35;;;;;;;68.07;21.20;;;23.10;52.60;;;;;;6152974;28;83148;-68
2021/12/19 11:00:39;;;;;;;61.53;20.98;;;23.20;53.00;;;;;;6156727;28;83508;-67
2021/12/19 11:03:40;;;;;;;54.95;17.92;;;23.20;52.60;;;;;;6154884;28;83495;-67
2021/12/19 11:06:40;;;;;;;42.50;14.85;;;23.30;51.60;;;;;;6157224;28;83142;-67
2021/12/19 11:09:41;;;;;;;46.47;14.32;;;23.30;51.30;;;;;;6156246;28;83325;-67
2021/12/19 11:12:41;;;;;;;40.78;12.25;;;23.30;50.90;;;;;;6186397;28;84169;-67
2021/12/19 11:15:42;;;;;;;31.30;11.90;;;23.40;50.70;;;;;;6155397;28;84493;-68
2021/12/19 11:18:43;;;;;;;28.08;10.13;;;23.40;50.20;;;;;;6156178;28;83397;-67
2021/12/19 11:21:44;;;;;;;22.48;9.10;;;23.40;49.80;;;;;;6156387;28;83588;-67
2021/12/19 11:24:44;;;;;;;24.58;8.63;;;23.40;49.70;;;;;;6158058;28;82104;-67
2021/12/19 11:27:45;;;;;;;22.70;7.78;;;23.40;49.50;;;;;;6158624;28;81896;-67
2021/12/19 11:30:45;;;;;;;18.55;7.32;;;23.40;49.40;;;;;;6158137;28;82454;-70
2021/12/19 11:33:46;;;;;;;13.30;6.15;;;23.40;49.10;;;;;;6146578;28;81847;-67
2021/12/19 11:36:46;;;;;;;15.77;6.25;;;23.40;49.00;;;;;;6151337;28;81650;-67
2021/12/19 11:39:47;;;;;;;15.93;6.03;;;23.40;48.80;;;;;;6157260;28;81643;-67
2021/12/19 11:42:47;;;;;;;15.75;5.65;;;23.40;48.80;;;;;;6158698;28;80505;-69
2021/12/19 11:45:56;;;;;;;15.75;5.38;;;23.40;48.60;;;;;;6158813;28;80802;-67
2021/12/19 11:48:57;;;;;;;15.68;6.43;;;23.40;48.50;;;;;;6158748;28;80662;-66
2021/12/19 11:51:57;;;;;;;13.60;5.55;;;23.40;48.30;;;;;;6158859;28;82218;-69
2021/12/19 11:54:58;;;;;;;10.95;4.13;;;23.40;48.20;;;;;;6158694;28;80607;-73
2021/12/19 11:57:58;;;;;;;11.40;4.43;;;23.30;48.10;;;;;;6158983;28;80552;-68
2021/12/19 12:00:59;;;;;;;14.45;4.18;;;23.30;48.30;;;;;;6151643;28;82043;-68
2021/12/19 12:03:59;;;;;;;9.05;4.45;;;23.40;48.20;;;;;;6156022;28;80937;-68
2021/12/19 12:07:00;;;;;;;10.18;4.15;;;23.40;48.00;;;;;;6157985;28;80247;-69
2021/12/19 12:10:01;;;;;;;10.13;4.10;;;23.40;48.00;;;;;;6157872;28;81643;-70
2021/12/19 12:13:01;;;;;;;10.32;3.88;;;23.40;47.90;;;;;;6155564;28;81861;-68
2021/12/19 12:16:08;;;;;;;9.88;3.35;;;23.50;47.90;;;;;;6158028;28;80724;-70
2021/12/19 12:19:09;;;;;;;7.88;3.65;;;23.50;47.60;;;;;;6155339;28;81756;-71
2021/12/19 12:22:09;;;;;;;7.95;3.22;;;23.50;47.70;;;;;;6156706;28;80853;-68
2021/12/19 12:25:11;;;;;;;10.13;3.63;;;23.40;47.60;;;;;;6160635;27;80624;-68
2021/12/19 12:28:15;;;;;;;6.68;2.63;;;23.40;47.40;;;;;;6158466;28;80428;-69
2021/12/19 12:31:16;;;;;;;8.13;3.50;;;23.50;47.30;;;;;;6161603;28;80849;-70
2021/12/19 12:34:16;;;;;;;11.43;4.18;;;23.40;47.20;;;;;;6157643;28;82839;-69
2021/12/19 12:37:17;;;;;;;9.98;3.90;;;23.40;47.80;;;;;;6159546;28;80512;-68
2021/12/19 12:40:31;;;;;;;9.32;4.10;;;23.40;47.70;;;;;;6156865;28;81532;-69
2021/12/19 12:43:32;;;;;;;6.30;3.78;;;23.40;47.90;;;;;;6161872;28;80112;-69
2021/12/19 12:46:32;;;;;;;6.13;3.35;;;23.40;48.70;;;;;;6162037;28;80744;-68
2021/12/19 12:49:34;;;;;;;8.18;3.15;;;23.40;48.20;;;;;;6161223;28;82091;-65
2021/12/19 12:52:35;;;;;;;9.18;3.90;;;23.40;48.20;;;;;;6161208;28;81810;-67
2021/12/19 12:55:35;;;;;;;8.90;3.97;;;23.40;48.70;;;;;;6163634;28;80047;-66
2021/12/19 12:58:36;;;;;;;14.05;4.75;;;23.40;48.30;;;;;;6162341;28;80639;-66
2021/12/19 13:01:38;;;;;;;9.05;4.68;;;23.30;49.80;;;;;;6162318;28;80481;-67
2021/12/19 13:04:39;;;;;;;11.85;4.90;;;23.30;49.50;;;;;;6159788;28;80286;-67
2021/12/19 13:07:39;;;;;;;11.68;4.43;;;23.30;50.10;;;;;;6162308;28;81550;-67
2021/12/19 13:10:40;;;;;;;12.20;4.15;;;23.20;49.80;;;;;;6161907;28;80300;-67
2021/12/19 13:13:41;;;;;;;10.45;3.95;;;23.30;49.80;;;;;;6193129;28;81932;-71
2021/12/19 13:16:42;;;;;;;6.88;3.08;;;23.30;49.50;;;;;;6170106;28;81176;-67
2021/12/19 13:19:42;;;;;;;6.40;3.28;;;23.20;49.20;;;;;;6195608;28;82304;-70
2021/12/19 13:22:45;;;;;;;7.80;3.53;;;23.30;49.30;;;;;;6161159;28;81648;-72
2021/12/19 13:25:45;;;;;;;6.32;3.40;;;23.30;49.20;;;;;;6168893;28;80335;-69
2021/12/19 13:28:47;;;;;;;5.43;3.38;;;23.30;49.30;;;;;;6164562;28;81607;-72
2021/12/19 13:31:48;;;;;;;7.50;3.60;;;23.30;49.00;;;;;;6149865;28;80758;-69
2021/12/19 13:34:48;;;;;;;7.00;2.95;;;23.30;49.10;;;;;;6168493;28;82195;-71
2021/12/19 13:37:49;;;;;;;10.02;3.72;;;23.30;48.80;;;;;;6164722;28;81028;-71
2021/12/19 13:40:49;;;;;;;8.57;3.53;;;23.30;48.50;;;;;;6159589;28;81597;-69
2021/12/19 13:43:50;;;;;;;7.50;2.92;;;23.30;48.50;;;;;;6161487;28;80532;-71
2021/12/19 13:46:51;;;;;;;5.85;2.30;;;23.30;48.30;;;;;;6162203;28;80582;-71
2021/12/19 13:49:51;;;;;;;8.07;2.75;;;23.30;47.90;;;;;;6162728;28;81001;-70
2021/12/19 13:52:52;;;;;;;5.95;2.47;;;23.30;47.90;;;;;;6161697;28;80482;-69
2021/12/19 13:55:52;;;;;;;6.63;2.50;;;23.20;47.80;;;;;;6172043;28;82035;-71
2021/12/19 13:58:53;;;;;;;9.88;3.20;;;23.30;47.80;;;;;;6165371;28;80419;-68
2021/12/19 14:01:53;;;;;;;3.95;2.15;;;23.30;47.70;;;;;;6161867;28;80368;-68
2021/12/19 14:04:55;;;;;;;3.85;2.40;;;23.30;47.20;;;;;;6164546;28;80354;-69
2021/12/19 14:07:55;;;;;;;6.85;2.97;;;23.30;47.20;;;;;;6173186;28;80736;-72
2021/12/19 14:10:56;;;;;;;10.05;2.22;;;23.20;48.00;;;;;;6163799;28;82771;-71
2021/12/19 14:13:59;;;;;;;7.28;2.42;;;23.20;48.30;;;;;;6162427;28;80630;-70
2021/12/19 14:17:00;;;;;;;7.07;3.08;;;23.20;48.80;;;;;;6158802;28;80548;-70
2021/12/19 14:20:01;;;;;;;12.20;2.50;;;23.20;49.40;;;;;;6160199;28;80218;-74
2021/12/19 14:23:01;;;;;;;9.85;2.80;;;23.20;49.50;;;;;;6162349;28;80327;-72
2021/12/19 14:26:02;;;;;;;11.48;2.67;;;23.20;49.40;;;;;;6159358;28;82525;-71
2021/12/19 14:29:02;;;;;;;14.93;2.78;;;23.20;49.70;;;;;;6161014;28;81520;-72
2021/12/19 14:32:03;;;;;;;6.43;2.45;;;23.20;49.70;;;;;;6153074;28;84083;-70
2021/12/19 14:35:03;;;;;;;6.40;2.03;;;23.20;49.90;;;;;;6160503;28;80745;-70
2021/12/19 14:38:04;;;;;;;6.95;2.47;;;23.10;49.90;;;;;;6165373;28;80903;-73
2021/12/19 14:41:05;;;;;;;8.52;2.30;;;23.10;49.80;;;;;;6160481;28;82293;-69
2021/12/19 14:44:05;;;;;;;6.93;2.20;;;23.10;49.80;;;;;;6162188;28;80709;-68
2021/12/19 14:47:06;;;;;;;8.88;2.45;;;23.10;49.60;;;;;;6160437;28;82153;-68
2021/12/19 14:50:06;;;;;;;4.72;2.10;;;23.20;49.50;;;;;;6162143;28;80278;-67
2021/12/19 14:53:07;;;;;;;20.15;2.45;;;23.20;49.70;;;;;;6162893;28;81236;-70
2021/12/19 14:56:07;;;;;;;4.25;2.70;;;23.20;50.00;;;;;;6160471;28;80300;-68
2021/12/19 14:59:09;;;;;;;4.57;2.50;;;23.20;50.20;;;;;;6159111;28;81229;-67
2021/12/19 15:02:10;;;;;;;6.38;2.17;;;23.20;50.40;;;;;;6161806;28;81094;-68
2021/12/19 15:05:10;;;;;;;4.10;2.10;;;23.20;50.30;;;;;;6159177;28;80167;-68
2021/12/19 15:08:14;;;;;;;7.07;2.00;;;23.20;50.10;;;;;;6160323;28;81186;-68
2021/12/19 15:11:14;;;;;;;3.88;1.90;;;23.20;49.90;;;;;;6158877;28;80551;-75
2021/12/19 15:14:15;;;;;;;5.60;2.45;;;23.20;49.90;;;;;;6160815;28;82127;-69
2021/12/19 15:17:16;;;;;;;3.15;2.10;;;23.20;49.90;;;;;;6160365;28;80339;-68
2021/12/19 15:20:17;;;;;;;4.88;2.15;;;23.20;50.20;;;;;;6158611;28;80656;-69
2021/12/19 15:23:17;;;;;;;6.93;2.45;;;23.20;50.20;;;;;;6160215;28;81180;-67
2021/12/19 15:26:18;;;;;;;9.55;2.17;;;23.20;49.90;;;;;;6159179;28;80365;-70
2021/12/19 15:29:18;;;;;;;10.48;2.42;;;23.20;49.80;;;;;;6161955;28;80640;-67
2021/12/19 15:32:19;;;;;;;8.32;2.40;;;23.20;49.80;;;;;;6156451;28;81535;-70
2021/12/19 15:35:19;;;;;;;11.52;2.53;;;23.20;50.00;;;;;;6158981;28;80907;-71
2021/12/19 15:38:20;;;;;;;11.45;2.22;;;23.20;50.00;;;;;;6158532;28;80668;-70
2021/12/19 15:41:21;;;;;;;7.35;2.30;;;23.20;49.70;;;;;;6159325;28;81419;-70
2021/12/19 15:44:22;;;;;;;3.55;2.08;;;23.20;49.40;;;;;;6156448;28;81891;-73
2021/12/19 15:47:22;;;;;;;3.65;2.08;;;23.20;49.10;;;;;;6159588;28;81777;-72
2021/12/19 15:50:23;;;;;;;4.10;2.10;;;23.20;49.10;;;;;;6158378;28;80630;-69
2021/12/19 15:53:23;;;;;;;5.07;1.95;;;23.20;49.20;;;;;;6156386;28;80543;-71
2021/12/19 15:56:24;;;;;;;3.00;2.03;;;23.20;49.30;;;;;;6160240;28;80538;-71
2021/12/19 15:59:24;;;;;;;4.30;1.98;;;23.20;49.60;;;;;;6156808;28;80353;-70
2021/12/19 16:02:25;;;;;;;53.65;27.00;;;23.20;49.20;;;;;;6155504;28;81301;-70
2021/12/19 16:05:25;;;;;;;175.80;86.22;;;23.30;49.60;;;;;;6152511;28;83151;-71
2021/12/19 16:08:26;;;;;;;182.20;88.55;;;23.20;49.50;;;;;;6155673;28;83146;-68
2021/12/19 16:11:27;;;;;;;168.95;78.22;;;23.20;49.70;;;;;;6145923;28;84146;-71
2021/12/19 16:14:27;;;;;;;204.60;99.13;;;23.20;49.50;;;;;;6156194;28;83357;-70
2021/12/19 16:17:28;;;;;;;224.88;108.68;;;23.20;49.40;;;;;;6159980;28;82989;-73
2021/12/19 16:20:28;;;;;;;167.27;81.38;;;23.20;49.20;;;;;;6157011;28;86874;-69
2021/12/19 16:23:29;;;;;;;148.38;73.88;;;23.30;48.90;;;;;;6159806;28;87231;-68
2021/12/19 16:26:29;;;;;;;220.52;107.32;;;23.30;48.40;;;;;;6158962;28;84091;-70
2021/12/19 16:29:30;;;;;;;167.10;82.72;;;23.20;48.40;;;;;;6155150;28;85622;-70
2021/12/19 16:32:30;;;;;;;134.90;65.35;;;23.20;48.60;;;;;;6154398;28;85359;-71
2021/12/19 16:35:31;;;;;;;119.65;58.63;;;23.20;48.30;;;;;;6156102;28;84120;-72
2021/12/19 16:38:31;;;;;;;112.80;51.97;;;23.30;48.40;;;;;;6159771;28;83860;-71